Terminal Aerodrome Forecast
Issued by NWS

Home | Current Version | Previous Version | Graphics & Text | Print | Product List | Glossary On
Versions: 1 2 3 4 5 6 7 8 9 10 11 12 13 14 15 16 17 18 19 20 21 22 23 24 25 26
000
FTUS45 KGGW 231121
TAFGDV
TAF
KGDV 231121Z 2312/2412 07011KT P6SM -SHRA VCTS OVC017CB
     FM231500 09011KT P6SM VCSH OVC015
     FM240000 06009KT P6SM -RA OVC009
     FM240200 05008KT P6SM VCSH OVC009
     FM240600 01008KT 5SM RA BR OVC004=

USA.gov is the U.S. government's official web portal to all federal, state and local government web resources and services.